To NAV CANADA Home Page Login to a new session Search on AWWS site Feedback and Comments Disclaimer Vers la page française équivalente Tips FAQ What's new on the site To the Forecasts and Observations / NOTAM section To "File a Flight Plan" website Publications and other links Update of the User's profile FIC Telephone Numbers My Weather Data Folder Route Weather Data Regional Weather Data Local Weather Data To the Forecasts and Observations / NOTAM section
Request Generated 07/29/2016 at 19:45:39 UTC . Weather information available at that time is displayed.

METAR/TAF

SCHEFFERVILLE/QC    (show WxCam)

SPECI CYKL 291931Z AUTO 01005KT 350V060 6SM -RA SCT017 BKN024 OVC030
14/12 A2983 RMK SLP117 DENSITY ALT 2000FT=
SPECI CYKL 291928Z AUTO 02004KT 360V060 6SM -RA BR FEW015 BKN025
BKN030 OVC035 13/12 A2983 RMK SLP117 DENSITY ALT 2000FT=
SPECI CYKL 291922Z AUTO 01008KT 9SM SCT015 SCT019 BKN027 OVC035 14/11
A2983 RMK SLP116 DENSITY ALT 2000FT=
SPECI CYKL 291921Z AUTO 01008KT 9SM SCT015 SCT019 BKN024 OVC035 14/11
A2983 RMK SLP117 DENSITY ALT 2000FT=
METAR CYKL 291900Z AUTO 03007KT 9SM SCT020 BKN026 OVC032 14/11 A2983
RMK SLP115 DENSITY ALT 2000FT=
SPECI CYKL 291858Z AUTO 03006KT 9SM SCT020 BKN026 OVC032 14/12 A2983
RMK SLP115 DENSITY ALT 2000FT=
SPECI CYKL 291844Z AUTO 02006KT 9SM BKN022 OVC036 15/11 A2983 RMK
SLP114 DENSITY ALT 2100FT=
SPECI CYKL 291840Z AUTO 02005KT 9SM SCT022 BKN026 OVC036 14/11 A2983
RMK SLP115 DENSITY ALT 2100FT=
METAR CYKL 291800Z AUTO 36005KT 9SM BKN020 BKN025 OVC032 14/11 A2982
RMK SLP114 DENSITY ALT 2000FT=
SPECI CYKL 291755Z AUTO 36004KT 310V020 9SM BKN020 BKN025 OVC032
14/11 A2982 RMK SLP114 DENSITY ALT 2000FT=
SPECI CYKL 291742Z AUTO 34004KT 310V020 9SM SCT017 BKN026 OVC032
14/11 A2982 RMK SLP114 DENSITY ALT 2000FT=
METAR CYKL 291700Z AUTO 06003KT 350V080 9SM BKN015 OVC020 13/11 A2983
RMK SLP115 DENSITY ALT 2000FT=

TAF CYKL 291938Z 2920/3008 03008KT P6SM SCT020 BKN025 TEMPO 2920/3002
5SM -SHRA BR BKN020
FM300200 36005KT 6SM BR BKN012 TEMPO 3002/3004 3SM -SHRA BR
BKN008
FM300400 35005KT 1SM -SHRA BR OVC002 TEMPO 3004/3008 2SM BR
OVC004
RMK FCST BASED ON AUTO OBS. NXT FCST BY 300200Z=
Your time UTC time
Weather data provided by Environment Canada and NAV CANADA